Terminal Aerodrome Forecast
Issued by NWS Jacksonville, FL

Home | Current Version | Previous Version | Text Only | Print | Product List | Glossary On
Versions: 1 2 3 4 5 6 7 8 9 10 11 12 13 14 15 16 17 18 19 20 21
812
FTUS42 KJAX 132323
TAFGNV
TAF
KGNV 132323Z 1400/1424 34004KT P6SM SKC
     FM141400 05008KT P6SM SCT035 SCT250
     FM142000 09008KT P6SM BKN035 BKN250=

USA.gov is the U.S. government's official web portal to all federal, state and local government web resources and services.